»·PEaware :: EXXON83 KRIV-KLSV

EXXON83 :: KRIV-KLSV

FLIGHT INFORMATION

Flight Status: Arrived
Operator: Unknown
More flights by this operator :: More flights under this callsign
Pilot: Luc P. (3613)
Aircraft: BOEING 767-300
(B763)
More flights by this aircraft type
Origin: KRIV March ARB
United States
Destination: KLSV Nellis AFB
United States
More flights between these airports :: More routes between these airports
Route: +SKYES4 TRM LAS
File this flight plan on PilotEdge
Remarks: PBN / A1B1C1D1L1O1 DOF / 200531 REG / 86046 SEL / CMAM PER / D RMK / TCAS)
Altitude:
(Current/Filed)
35,000ft
Speed:
(Current/Filed)
480kts
Departed: 31-May-20 08:32 AM
Arrived: 31-May-20 09:20 AM
Distance/Time
Traveled:
178nm/0:48
Distance/Time
To Go:
Arrived

Flight Plot

Page will automatically refresh every two minutes.

Flight plan parsing failed; only flown route is shown


Map Options




Map Legend


Flown Route
Filed Route
Departure Airport
Arrival Airport
Navaid (VOR, NDB)
Fix

Horizontal Profiles

Position Reports

Time Latitude Longitude Heading Altitude Ground
Speed
31-May-20 07:54 33.896941 -117.261286 315 1537ft 0kts
31-May-20 07:55 33.896941 -117.261286 315 1537ft 0kts
31-May-20 07:56 33.896941 -117.261286 315 1537ft 0kts
31-May-20 07:57 33.896941 -117.261286 315 1537ft 0kts
31-May-20 07:58 33.896941 -117.261286 315 1537ft 0kts
31-May-20 07:59 33.896941 -117.261286 315 1537ft 0kts
31-May-20 08:00 33.896941 -117.261286 315 1537ft 0kts
31-May-20 08:01 33.896941 -117.261286 315 1537ft 0kts
31-May-20 08:02 33.896941 -117.261286 315 1537ft 0kts
31-May-20 08:03 33.896941 -117.261286 315 1537ft 0kts
31-May-20 08:04 33.896941 -117.261286 315 1537ft 0kts
31-May-20 08:05 33.896941 -117.261286 315 1537ft 0kts
31-May-20 08:06 33.896941 -117.261286 315 1537ft 0kts
31-May-20 08:07 33.896941 -117.261286 315 1537ft 0kts
31-May-20 08:08 33.896941 -117.261286 315 1537ft 0kts
31-May-20 08:09 33.896941 -117.261286 315 1537ft 0kts
31-May-20 08:10 33.896941 -117.261286 315 1537ft 0kts
31-May-20 08:11 33.896941 -117.261286 315 1537ft 0kts
31-May-20 08:12 33.896941 -117.261286 315 1537ft 0kts
31-May-20 08:13 33.896941 -117.261286 315 1537ft 0kts
31-May-20 08:14 33.896941 -117.261286 315 1537ft 0kts
31-May-20 08:15 33.896941 -117.261286 315 1537ft 0kts
31-May-20 08:16 33.896941 -117.261286 315 1537ft 0kts
31-May-20 08:17 33.896941 -117.261286 315 1537ft 0kts
31-May-20 08:18 33.896941 -117.261286 315 1537ft 0kts
31-May-20 08:19 33.896941 -117.261286 315 1537ft 0kts
31-May-20 08:20 33.896941 -117.261286 315 1537ft 0kts
31-May-20 08:21 33.897191 -117.261751 271 1537ft 2kts
31-May-20 08:22 33.896312 -117.263057 224 1538ft 6kts
31-May-20 08:24 33.894442 -117.262390 135 1535ft 13kts
31-May-20 08:25 33.890976 -117.258235 135 1527ft 21kts
31-May-20 08:26 33.886009 -117.252243 134 1515ft 26kts
31-May-20 08:27 33.881024 -117.248841 206 1505ft 20kts
31-May-20 08:28 33.875314 -117.251971 173 1503ft 20kts
31-May-20 08:29 33.869213 -117.248120 151 1494ft 29kts
31-May-20 08:30 33.865171 -117.246559 256 1493ft 3kts
31-May-20 08:31 33.865376 -117.247830 284 1493ft 6kts
31-May-20 08:32 33.874880 -117.255292 329 1511ft 126kts
31-May-20 08:33 33.913760 -117.284014 326 3266ft 175kts
31-May-20 08:34 33.944000 -117.334895 252 4738ft 236kts
31-May-20 08:35 33.882565 -117.353211 171 7297ft 273kts
31-May-20 08:36 33.807297 -117.335221 169 10314ft 281kts
31-May-20 08:37 33.722581 -117.313348 169 11955ft 344kts
31-May-20 08:38 33.625509 -117.283857 153 14359ft 384kts
31-May-20 08:38 33.550424 -117.222607 148 16793ft 401kts
31-May-20 08:40 33.443326 -117.128652 137 20535ft 425kts
31-May-20 08:41 33.395259 -116.995764 98 23437ft 464kts
31-May-20 08:41 33.416143 -116.865993 66 25867ft 498kts
31-May-20 08:43 33.479219 -116.683959 72 29277ft 520kts
31-May-20 08:43 33.518515 -116.548707 72 32233ft 514kts
31-May-20 08:44 33.564179 -116.387765 72 34916ft 508kts
31-May-20 08:46 33.630303 -116.208669 50 35032ft 508kts
31-May-20 08:46 33.723244 -116.125366 19 35021ft 502kts
31-May-20 08:47 33.854320 -116.070744 15 34994ft 500kts
31-May-20 08:48 33.986578 -116.017819 15 34973ft 501kts
31-May-20 08:49 34.118329 -115.965132 15 34953ft 501kts
31-May-20 08:50 34.250461 -115.912142 15 34978ft 501kts
31-May-20 08:51 34.382156 -115.859156 15 34881ft 501kts
31-May-20 08:52 34.514283 -115.805807 15 34877ft 496kts
31-May-20 08:53 34.645236 -115.752783 15 32465ft 500kts
31-May-20 08:54 34.776798 -115.699317 16 29497ft 500kts
31-May-20 08:55 34.907309 -115.646080 16 26754ft 483kts
31-May-20 08:56 35.028275 -115.596589 16 24271ft 446kts
31-May-20 08:57 35.144777 -115.548797 17 21785ft 434kts
31-May-20 08:58 35.257100 -115.502569 17 19954ft 413kts
31-May-20 08:59 35.366156 -115.457555 17 19965ft 416kts
31-May-20 09:00 35.473552 -115.413095 17 19983ft 400kts
31-May-20 09:01 35.578618 -115.369487 17 19993ft 399kts
31-May-20 09:02 35.683405 -115.325874 18 19991ft 399kts
31-May-20 09:03 35.787035 -115.282627 18 18251ft 388kts
31-May-20 09:04 35.887381 -115.240626 18 15927ft 375kts
31-May-20 09:05 35.984177 -115.200010 19 13785ft 363kts
31-May-20 09:06 36.076486 -115.160174 27 12969ft 328kts
31-May-20 09:07 36.163084 -115.131465 11 12978ft 324kts
31-May-20 09:08 36.251245 -115.108399 11 12979ft 324kts
31-May-20 09:09 36.339264 -115.085343 11 12140ft 321kts
31-May-20 09:10 36.424047 -115.063694 11 10413ft 303kts
31-May-20 09:11 36.503219 -115.039474 37 8712ft 287kts
31-May-20 09:12 36.510522 -114.958050 115 8276ft 242kts
31-May-20 09:13 36.464282 -114.904335 144 7199ft 227kts
31-May-20 09:14 36.406670 -114.877601 177 5694ft 221kts
31-May-20 09:15 36.354148 -114.908046 214 4665ft 199kts
31-May-20 09:16 36.314520 -114.950764 222 3799ft 172kts
31-May-20 09:17 36.281336 -114.987352 221 2862ft 155kts
31-May-20 09:18 36.248699 -115.022922 221 1971ft 155kts
31-May-20 09:19 36.227176 -115.046292 227 1843ft 17kts
31-May-20 09:20 36.227923 -115.047847 36 1845ft 3kts
31-May-20 09:21 36.228649 -115.047544 323 1846ft 3kts
31-May-20 09:22 36.229194 -115.048278 312 1849ft 0kts
31-May-20 09:23 36.229194 -115.048278 312 1849ft 0kts

Navigation Log

Ident Type
Flight plan parsing failed, navigation log unavailable